Time;durP1;ratioP1;P1;durP2;ratioP2;P2;SDS_P1;SDS_P2;PMS_P1;PMS_P2;Temp;Humidity;BMP_temperature;BMP_pressure;BME280_temperature;BME280_humidity;BME280_pressure;Samples;Min_cycle;Max_cycle;Signal;HPM_P1;HPM_P2
2023/06/23 00:01:39;;;;;;;1.10;0.68;;;;;;;;;;7392183;19;20136;-91
2023/06/23 00:04:06;;;;;;;0.73;0.73;;;;;;;;;;7394224;19;20188;-91
2023/06/23 00:07:01;;;;;;;0.65;0.65;;;;;;;;;;7395485;19;20146;-91
2023/06/23 00:12:59;;;;;;;1.38;0.80;;;;;;;;;;7395992;19;20214;-92
2023/06/23 00:15:35;;;;;;;0.52;0.52;;;;;;;;;;7391948;19;20146;-92
2023/06/23 00:44:57;;;;;;;0.45;0.45;;;;;;;;;;7401458;19;20595;-89
2023/06/23 00:47:56;;;;;;;0.35;0.35;;;;;;;;;;7401625;19;20165;-90
2023/06/23 00:50:24;;;;;;;0.50;0.50;;;;;;;;;;7406288;19;20137;-87
2023/06/23 01:27:03;;;;;;;0.32;0.32;;;;;;;;;;7401023;19;20143;-90
2023/06/23 01:29:34;;;;;;;0.50;0.50;;;;;;;;;;7398315;19;20154;-90
2023/06/23 01:32:20;;;;;;;0.40;0.40;;;;;;;;;;7401659;19;20148;-91
2023/06/23 01:35:39;;;;;;;;;;;;;;;;;;;;;
2023/06/23 01:38:55;;;;;;;0.40;0.40;;;;;;;;;;7394540;19;20232;-89
2023/06/23 01:44:57;;;;;;;0.30;0.30;;;;;;;;;;7398693;19;20168;-90
2023/06/23 01:47:56;;;;;;;0.35;0.35;;;;;;;;;;7401172;19;20128;-90
2023/06/23 01:50:37;;;;;;;0.95;0.95;;;;;;;;;;7397021;19;20141;-90
2023/06/23 02:00:15;;;;;;;1.42;0.65;;;;;;;;;;7398786;19;20266;-90
2023/06/23 02:03:00;;;;;;;0.40;0.40;;;;;;;;;;7395629;19;20173;-90
2023/06/23 02:05:27;;;;;;;0.47;0.47;;;;;;;;;;7395507;19;20143;-93
2023/06/23 02:07:56;;;;;;;0.50;0.50;;;;;;;;;;7397722;19;20166;-92
2023/06/23 02:10:24;;;;;;;0.45;0.45;;;;;;;;;;7395355;19;20140;-91
2023/06/23 02:12:55;;;;;;;0.50;0.50;;;;;;;;;;7398750;19;20217;-91
2023/06/23 02:15:22;;;;;;;4.95;0.50;;;;;;;;;;7398499;19;20144;-91
2023/06/23 02:17:50;;;;;;;1.05;0.60;;;;;;;;;;7400746;19;20213;-92
2023/06/23 02:20:17;;;;;;;0.60;0.60;;;;;;;;;;7408757;19;20204;-89
2023/06/23 02:22:48;;;;;;;0.30;0.30;;;;;;;;;;7418132;19;20140;-91
2023/06/23 02:25:17;;;;;;;0.70;0.70;;;;;;;;;;7419272;19;20188;-91
2023/06/23 02:27:46;;;;;;;0.40;0.40;;;;;;;;;;7409985;19;20165;-93
2023/06/23 02:30:13;;;;;;;0.30;0.30;;;;;;;;;;7399494;19;20144;-91
2023/06/23 02:32:40;;;;;;;0.60;0.60;;;;;;;;;;7399112;19;20157;-92
2023/06/23 02:35:09;;;;;;;0.40;0.40;;;;;;;;;;7396678;19;20172;-92
2023/06/23 02:37:39;;;;;;;0.30;0.30;;;;;;;;;;7398047;19;20597;-91
2023/06/23 02:40:16;;;;;;;0.57;0.57;;;;;;;;;;7405547;19;20509;-92
2023/06/23 02:42:50;;;;;;;0.73;0.47;;;;;;;;;;7404624;19;20145;-93
2023/06/23 02:45:20;;;;;;;0.90;0.90;;;;;;;;;;7396839;19;20167;-91
2023/06/23 02:47:49;;;;;;;0.32;0.32;;;;;;;;;;7394631;19;20494;-92
2023/06/23 02:50:18;;;;;;;0.30;0.30;;;;;;;;;;7396071;19;20164;-91
2023/06/23 02:52:47;;;;;;;0.65;0.40;;;;;;;;;;7397314;19;20133;-91
2023/06/23 02:55:22;;;;;;;0.75;0.75;;;;;;;;;;7394603;19;20140;-91
2023/06/23 02:57:51;;;;;;;0.40;0.40;;;;;;;;;;7396471;19;20209;-91
2023/06/23 03:00:23;;;;;;;0.40;0.40;;;;;;;;;;7397772;19;20196;-92
2023/06/23 03:03:13;;;;;;;0.40;0.40;;;;;;;;;;7394415;19;20141;-91
2023/06/23 03:05:43;;;;;;;0.30;0.30;;;;;;;;;;7399006;19;20153;-89
2023/06/23 03:08:13;;;;;;;0.55;0.47;;;;;;;;;;7396012;19;20145;-93
2023/06/23 03:10:45;;;;;;;0.65;0.65;;;;;;;;;;7395717;19;20145;-90
2023/06/23 03:13:16;;;;;;;1.65;0.50;;;;;;;;;;7390205;19;20164;-92
2023/06/23 03:16:20;;;;;;;0.95;0.85;;;;;;;;;;7396796;19;20137;-91
2023/06/23 03:18:52;;;;;;;0.30;0.30;;;;;;;;;;7393954;19;20140;-91
2023/06/23 03:21:19;;;;;;;0.85;0.82;;;;;;;;;;7395872;19;20144;-90
2023/06/23 03:23:49;;;;;;;1.05;0.95;;;;;;;;;;7394567;19;20176;-92
2023/06/23 03:26:17;;;;;;;0.32;0.32;;;;;;;;;;7398738;19;20602;-92
2023/06/23 03:28:49;;;;;;;1.08;0.88;;;;;;;;;;7401099;19;20204;-93
2023/06/23 03:31:28;;;;;;;0.40;0.40;;;;;;;;;;7396092;19;20785;-92
2023/06/23 03:33:56;;;;;;;0.68;0.68;;;;;;;;;;7396891;19;20610;-93
2023/06/23 03:36:29;;;;;;;0.68;0.68;;;;;;;;;;7397850;19;20168;-92
2023/06/23 03:39:05;;;;;;;0.50;0.50;;;;;;;;;;7399611;19;20141;-94
2023/06/23 03:41:33;;;;;;;1.80;0.60;;;;;;;;;;7395817;19;20155;-92
2023/06/23 03:44:30;;;;;;;0.40;0.40;;;;;;;;;;7397357;19;20168;-93
2023/06/23 03:47:19;;;;;;;0.60;0.60;;;;;;;;;;7399594;19;20877;-94
2023/06/23 03:49:54;;;;;;;0.40;0.40;;;;;;;;;;7401594;19;20144;-93
2023/06/23 03:52:22;;;;;;;0.55;0.55;;;;;;;;;;7395291;19;20200;-93
2023/06/23 03:54:55;;;;;;;0.70;0.70;;;;;;;;;;7392372;19;20160;-92
2023/06/23 03:57:25;;;;;;;1.95;0.60;;;;;;;;;;7396085;19;20212;-93
2023/06/23 03:59:54;;;;;;;0.45;0.45;;;;;;;;;;7394648;19;20204;-92
2023/06/23 04:02:23;;;;;;;0.43;0.43;;;;;;;;;;7400085;19;20154;-92
2023/06/23 04:04:54;;;;;;;0.43;0.43;;;;;;;;;;7397037;19;20169;-92
2023/06/23 04:07:30;;;;;;;0.82;0.82;;;;;;;;;;7396224;19;20133;-92
2023/06/23 04:10:18;;;;;;;0.93;0.93;;;;;;;;;;7395699;19;20513;-92
2023/06/23 04:13:07;;;;;;;0.45;0.45;;;;;;;;;;7397840;19;20145;-93
2023/06/23 04:15:51;;;;;;;0.63;0.63;;;;;;;;;;7392857;19;20621;-93
2023/06/23 04:18:33;;;;;;;1.30;1.02;;;;;;;;;;7395333;19;20613;-93
2023/06/23 04:21:04;;;;;;;0.82;0.82;;;;;;;;;;7389831;19;20140;-93
2023/06/23 04:23:32;;;;;;;0.77;0.77;;;;;;;;;;7391747;19;20180;-91
2023/06/23 04:26:02;;;;;;;0.90;0.90;;;;;;;;;;7392746;19;20543;-90
2023/06/23 04:28:34;;;;;;;0.68;0.68;;;;;;;;;;7388220;19;20479;-91
2023/06/23 04:31:12;;;;;;;0.98;0.95;;;;;;;;;;7391191;19;20161;-92
2023/06/23 04:33:40;;;;;;;0.95;0.50;;;;;;;;;;7387816;19;20198;-93
2023/06/23 04:36:15;;;;;;;1.20;1.17;;;;;;;;;;7390685;19;20140;-91
2023/06/23 05:48:27;;;;;;;0.68;0.68;;;;;;;;;;7409385;19;20208;-91
2023/06/23 05:50:56;;;;;;;0.55;0.55;;;;;;;;;;7396444;19;20145;-91
2023/06/23 05:53:24;;;;;;;0.75;0.75;;;;;;;;;;7401451;19;20161;-92
2023/06/23 05:56:09;;;;;;;1.35;1.25;;;;;;;;;;7397004;19;20137;-91
2023/06/23 05:58:57;;;;;;;0.90;0.88;;;;;;;;;;7404267;19;20157;-93
2023/06/23 06:01:33;;;;;;;0.75;0.75;;;;;;;;;;7400798;19;20148;-92
2023/06/23 06:04:06;;;;;;;1.00;1.00;;;;;;;;;;7406125;19;20189;-92
2023/06/23 06:06:56;;;;;;;1.63;1.52;;;;;;;;;;7402177;19;20137;-92
2023/06/23 06:09:31;;;;;;;1.17;1.08;;;;;;;;;;7406991;19;20145;-91
2023/06/23 06:11:58;;;;;;;0.52;0.52;;;;;;;;;;7406696;19;20133;-92
2023/06/23 06:14:27;;;;;;;2.05;1.42;;;;;;;;;;7407568;19;20163;-91
2023/06/23 06:16:55;;;;;;;1.55;1.48;;;;;;;;;;7404975;19;20546;-91
2023/06/23 06:19:23;;;;;;;1.23;1.15;;;;;;;;;;7398312;19;20128;-91
2023/06/23 06:21:51;;;;;;;2.25;1.73;;;;;;;;;;7399761;19;20669;-90
2023/06/23 06:24:18;;;;;;;1.10;1.10;;;;;;;;;;7394619;19;20212;-90
2023/06/23 06:26:46;;;;;;;0.93;0.93;;;;;;;;;;7388734;19;20125;-92
2023/06/23 06:29:14;;;;;;;2.85;1.58;;;;;;;;;;7395833;19;20479;-93
2023/06/23 06:31:45;;;;;;;1.00;1.00;;;;;;;;;;7402633;19;20121;-90
2023/06/23 06:34:15;;;;;;;2.13;2.03;;;;;;;;;;7402734;19;20197;-90
2023/06/23 06:37:12;;;;;;;1.58;1.50;;;;;;;;;;7400312;19;20133;-90
2023/06/23 06:39:39;;;;;;;1.90;1.80;;;;;;;;;;7401487;19;20540;-91
2023/06/23 06:42:09;;;;;;;1.75;1.65;;;;;;;;;;7399994;19;20145;-91
2023/06/23 06:45:15;;;;;;;3.50;2.35;;;;;;;;;;7400117;19;20172;-90
2023/06/23 06:58:32;;;;;;;1.13;1.02;;;;;;;;;;7403952;19;20143;-89
2023/06/23 07:14:01;;;;;;;0.98;0.98;;;;;;;;;;7404089;19;20188;-91
2023/06/23 07:17:32;;;;;;;1.55;1.45;;;;;;;;;;7402436;19;20144;-89
2023/06/23 07:20:54;;;;;;;1.70;1.60;;;;;;;;;;7403654;19;20200;-90
2023/06/23 07:23:45;;;;;;;0.65;0.65;;;;;;;;;;7398437;19;20197;-90
2023/06/23 07:26:27;;;;;;;1.75;1.65;;;;;;;;;;7405220;19;20192;-88
2023/06/23 07:28:57;;;;;;;1.30;1.30;;;;;;;;;;7393179;19;20168;-89
2023/06/23 07:31:37;;;;;;;1.75;1.65;;;;;;;;;;7397383;19;20160;-90
2023/06/23 07:34:05;;;;;;;1.15;1.05;;;;;;;;;;7395767;19;20172;-90
2023/06/23 07:36:37;;;;;;;1.80;1.60;;;;;;;;;;7393444;19;20153;-91
2023/06/23 07:39:08;;;;;;;1.92;1.75;;;;;;;;;;7395180;19;20132;-90
2023/06/23 07:41:47;;;;;;;1.35;1.25;;;;;;;;;;7400002;19;20132;-90
2023/06/23 07:44:22;;;;;;;1.70;1.60;;;;;;;;;;7398022;19;20519;-90
2023/06/23 07:50:20;;;;;;;1.58;1.48;;;;;;;;;;7399349;19;20140;-90
2023/06/23 07:52:54;;;;;;;1.77;1.67;;;;;;;;;;7398551;19;20140;-90
2023/06/23 07:56:10;;;;;;;0.80;0.80;;;;;;;;;;7395858;19;20164;-91
2023/06/23 08:05:51;;;;;;;3.78;1.50;;;;;;;;;;7400009;19;20162;-90
2023/06/23 08:08:18;;;;;;;1.38;1.27;;;;;;;;;;7396045;19;20153;-90
2023/06/23 08:10:48;;;;;;;1.83;1.73;;;;;;;;;;7400610;19;20212;-90
2023/06/23 08:13:15;;;;;;;1.33;1.23;;;;;;;;;;7397620;19;20164;-90
2023/06/23 08:19:14;;;;;;;1.45;1.35;;;;;;;;;;7404666;19;20457;-92
2023/06/23 08:21:51;;;;;;;1.38;1.33;;;;;;;;;;7396501;19;20141;-92
2023/06/23 08:37:49;;;;;;;1.27;1.20;;;;;;;;;;7406977;19;20144;-88
2023/06/23 08:40:30;;;;;;;1.95;1.85;;;;;;;;;;7408936;19;20143;-88
2023/06/23 08:42:58;;;;;;;1.63;1.52;;;;;;;;;;7418479;19;20752;-89
2023/06/23 08:45:35;;;;;;;1.77;1.45;;;;;;;;;;7419534;19;20145;-88
2023/06/23 08:48:06;;;;;;;1.15;1.15;;;;;;;;;;7415095;19;20145;-91
2023/06/23 08:50:37;;;;;;;1.35;1.35;;;;;;;;;;7409572;19;20157;-90
2023/06/23 08:53:05;;;;;;;2.55;1.80;;;;;;;;;;7410683;19;20144;-93
2023/06/23 08:55:32;;;;;;;3.45;1.30;;;;;;;;;;7406931;19;20140;-93
2023/06/23 08:58:01;;;;;;;1.15;1.15;;;;;;;;;;7406830;19;20145;-93
2023/06/23 09:00:28;;;;;;;0.98;0.98;;;;;;;;;;7411307;19;20615;-91
2023/06/23 09:02:56;;;;;;;1.13;1.13;;;;;;;;;;7404668;19;20141;-91
2023/06/23 09:05:27;;;;;;;1.75;1.65;;;;;;;;;;7407911;19;20643;-93
2023/06/23 09:07:54;;;;;;;1.40;1.30;;;;;;;;;;7409950;19;20145;-94
2023/06/23 09:10:21;;;;;;;1.33;1.25;;;;;;;;;;7405874;19;20148;-94
2023/06/23 09:13:27;;;;;;;1.50;1.40;;;;;;;;;;7398245;19;20208;-92
2023/06/23 09:15:54;;;;;;;2.58;1.67;;;;;;;;;;7404420;19;20659;-92
2023/06/23 09:22:55;;;;;;;0.88;0.88;;;;;;;;;;7406797;19;20104;-92
2023/06/23 09:25:37;;;;;;;1.30;1.30;;;;;;;;;;7402456;19;20179;-92
2023/06/23 09:28:05;;;;;;;1.88;1.67;;;;;;;;;;7400438;19;20149;-92
2023/06/23 09:30:35;;;;;;;1.85;1.75;;;;;;;;;;7396492;19;20133;-95
2023/06/23 09:33:06;;;;;;;1.88;1.48;;;;;;;;;;7405510;19;20145;-94
2023/06/23 09:35:44;;;;;;;1.67;1.58;;;;;;;;;;7402440;19;20196;-90
2023/06/23 09:38:12;;;;;;;1.88;1.77;;;;;;;;;;7402991;19;20135;-90
2023/06/23 09:40:39;;;;;;;1.20;1.20;;;;;;;;;;7402294;19;20153;-92
2023/06/23 09:43:08;;;;;;;1.95;1.65;;;;;;;;;;7399281;19;20161;-91
2023/06/23 09:45:44;;;;;;;1.52;1.42;;;;;;;;;;7400006;19;20160;-91
2023/06/23 09:48:21;;;;;;;1.30;1.30;;;;;;;;;;7402313;19;20145;-91
2023/06/23 09:50:59;;;;;;;1.98;1.88;;;;;;;;;;7401803;19;20137;-94
2023/06/23 09:53:30;;;;;;;1.15;1.13;;;;;;;;;;7399292;19;20175;-91
2023/06/23 09:56:00;;;;;;;1.45;1.35;;;;;;;;;;7400385;19;20145;-93
2023/06/23 09:58:37;;;;;;;1.38;1.38;;;;;;;;;;7399658;19;20158;-90
2023/06/23 10:01:14;;;;;;;1.08;1.08;;;;;;;;;;7400932;19;20154;-90
2023/06/23 10:03:49;;;;;;;1.27;1.25;;;;;;;;;;7398747;19;20149;-94
2023/06/23 10:06:28;;;;;;;1.73;1.63;;;;;;;;;;7395570;19;20176;-91
2023/06/23 10:08:57;;;;;;;1.02;1.02;;;;;;;;;;7398934;19;20141;-88
2023/06/23 10:11:38;;;;;;;1.10;1.10;;;;;;;;;;7398571;19;20354;-91
2023/06/23 10:14:11;;;;;;;1.55;1.45;;;;;;;;;;7398439;19;20175;-91
2023/06/23 10:16:46;;;;;;;1.80;1.70;;;;;;;;;;7400330;19;20212;-93
2023/06/23 10:19:12;;;;;;;1.23;1.17;;;;;;;;;;7400025;19;20136;-92
2023/06/23 10:21:41;;;;;;;1.83;1.73;;;;;;;;;;7395857;19;20140;-91
2023/06/23 10:24:13;;;;;;;2.17;1.17;;;;;;;;;;7394785;19;20176;-92
2023/06/23 10:26:40;;;;;;;1.30;1.23;;;;;;;;;;7398669;19;20147;-91
2023/06/23 10:29:12;;;;;;;1.65;1.58;;;;;;;;;;7398298;19;20156;-94
2023/06/23 10:31:56;;;;;;;1.20;1.20;;;;;;;;;;7397450;19;20156;-92
2023/06/23 10:34:26;;;;;;;3.88;1.50;;;;;;;;;;7412779;19;20211;-90
2023/06/23 10:36:55;;;;;;;2.00;1.13;;;;;;;;;;7425867;19;20150;-92
2023/06/23 10:39:24;;;;;;;1.10;1.10;;;;;;;;;;7433740;19;20149;-91
2023/06/23 10:41:52;;;;;;;1.20;1.20;;;;;;;;;;7432851;19;20129;-91
2023/06/23 10:44:19;;;;;;;1.42;1.38;;;;;;;;;;7430742;19;20141;-92
2023/06/23 10:46:49;;;;;;;1.23;1.05;;;;;;;;;;7431679;19;20133;-92
2023/06/23 10:49:21;;;;;;;1.20;1.20;;;;;;;;;;7427658;19;20148;-91
2023/06/23 10:51:51;;;;;;;1.95;1.85;;;;;;;;;;7429785;19;20125;-90
2023/06/23 10:54:28;;;;;;;0.70;0.70;;;;;;;;;;7418184;19;20165;-89
2023/06/23 10:56:55;;;;;;;2.35;1.20;;;;;;;;;;7427745;19;20137;-93
2023/06/23 10:59:25;;;;;;;1.40;1.30;;;;;;;;;;7412025;19;20223;-91
2023/06/23 11:02:02;;;;;;;4.70;1.08;;;;;;;;;;7398300;19;20144;-93
2023/06/23 11:04:31;;;;;;;0.80;0.80;;;;;;;;;;7392557;19;20148;-92
2023/06/23 11:07:31;;;;;;;1.40;1.20;;;;;;;;;;7391591;19;20142;-93
2023/06/23 11:10:06;;;;;;;0.75;0.73;;;;;;;;;;7396261;19;20148;-92
2023/06/23 11:12:36;;;;;;;1.27;1.17;;;;;;;;;;7397500;19;20141;-92
2023/06/23 11:15:23;;;;;;;1.63;1.55;;;;;;;;;;7399191;19;20609;-91
2023/06/23 11:18:06;;;;;;;0.80;0.80;;;;;;;;;;7400452;19;20137;-92
2023/06/23 11:20:35;;;;;;;0.93;0.93;;;;;;;;;;7399293;19;20589;-92
2023/06/23 11:23:10;;;;;;;0.75;0.75;;;;;;;;;;7396090;19;20129;-92
2023/06/23 11:25:47;;;;;;;0.73;0.73;;;;;;;;;;7395275;19;20148;-90
2023/06/23 11:28:36;;;;;;;0.93;0.93;;;;;;;;;;7397681;19;20476;-91
2023/06/23 11:31:13;;;;;;;1.08;0.90;;;;;;;;;;7399621;19;20144;-91
2023/06/23 11:33:42;;;;;;;0.68;0.68;;;;;;;;;;7395832;19;20176;-90
2023/06/23 11:36:10;;;;;;;1.25;1.17;;;;;;;;;;7396111;19;20141;-92
2023/06/23 11:38:39;;;;;;;1.20;1.00;;;;;;;;;;7398272;19;20161;-92
2023/06/23 11:41:06;;;;;;;1.30;1.20;;;;;;;;;;7395438;19;20157;-89
2023/06/23 11:43:34;;;;;;;0.75;0.75;;;;;;;;;;7396568;19;20157;-91
2023/06/23 11:46:09;;;;;;;1.05;1.05;;;;;;;;;;7396542;19;20143;-90
2023/06/23 11:48:36;;;;;;;2.05;1.48;;;;;;;;;;7398075;19;20484;-92
2023/06/23 11:51:04;;;;;;;1.00;1.00;;;;;;;;;;7397739;19;20141;-90
2023/06/23 11:53:31;;;;;;;1.00;0.98;;;;;;;;;;7396674;19;20163;-93
2023/06/23 11:56:08;;;;;;;0.93;0.90;;;;;;;;;;7397427;19;20139;-90
2023/06/23 11:58:36;;;;;;;1.08;1.02;;;;;;;;;;7393743;19;20137;-91
2023/06/23 12:01:04;;;;;;;1.13;0.95;;;;;;;;;;7395416;19;20201;-90
2023/06/23 12:06:24;;;;;;;1.08;1.00;;;;;;;;;;7395214;19;20612;-92
2023/06/23 12:08:54;;;;;;;0.77;0.77;;;;;;;;;;7386606;19;20148;-91
2023/06/23 12:11:22;;;;;;;1.60;1.05;;;;;;;;;;7388756;19;20141;-91
2023/06/23 12:13:52;;;;;;;0.90;0.90;;;;;;;;;;7396820;19;20153;-93
2023/06/23 12:16:19;;;;;;;0.75;0.75;;;;;;;;;;7398769;19;20144;-91
2023/06/23 12:18:50;;;;;;;1.15;1.13;;;;;;;;;;7403973;19;20151;-92
2023/06/23 12:21:19;;;;;;;1.15;1.10;;;;;;;;;;7404042;19;20493;-92
2023/06/23 12:23:46;;;;;;;0.90;0.90;;;;;;;;;;7398781;19;20180;-92
2023/06/23 12:26:25;;;;;;;1.10;1.00;;;;;;;;;;7403784;19;20629;-93
2023/06/23 12:29:07;;;;;;;0.60;0.60;;;;;;;;;;7399520;19;20133;-90
2023/06/23 12:31:34;;;;;;;0.68;0.68;;;;;;;;;;7404757;19;20141;-91
2023/06/23 12:34:01;;;;;;;1.70;1.00;;;;;;;;;;7400012;19;20156;-91
2023/06/23 12:36:28;;;;;;;0.88;0.88;;;;;;;;;;7397318;19;20144;-91
2023/06/23 12:38:55;;;;;;;0.70;0.70;;;;;;;;;;7400441;19;20144;-91
2023/06/23 12:41:26;;;;;;;0.93;0.90;;;;;;;;;;7402402;19;20151;-94
2023/06/23 12:43:59;;;;;;;0.85;0.65;;;;;;;;;;7402450;19;20172;-92
2023/06/23 12:46:27;;;;;;;0.65;0.65;;;;;;;;;;7396970;19;20485;-91
2023/06/23 12:48:55;;;;;;;0.57;0.57;;;;;;;;;;7401368;19;20500;-94
2023/06/23 12:51:35;;;;;;;0.80;0.80;;;;;;;;;;7402445;19;20204;-92
2023/06/23 12:54:03;;;;;;;0.50;0.50;;;;;;;;;;7396786;19;20162;-91
2023/06/23 12:56:29;;;;;;;0.75;0.68;;;;;;;;;;7401148;19;20141;-90
2023/06/23 12:58:57;;;;;;;1.38;1.13;;;;;;;;;;7398651;19;20140;-92
2023/06/23 13:01:31;;;;;;;1.13;1.13;;;;;;;;;;7410134;19;20172;-96
2023/06/23 13:04:25;;;;;;;0.65;0.65;;;;;;;;;;7411637;19;20172;-90
2023/06/23 13:06:52;;;;;;;0.70;0.70;;;;;;;;;;7407919;19;20151;-93
2023/06/23 13:12:57;;;;;;;0.93;0.88;;;;;;;;;;7415884;19;20143;-92
2023/06/23 13:15:25;;;;;;;1.30;0.80;;;;;;;;;;7411614;19;20180;-92
2023/06/23 13:17:51;;;;;;;1.13;0.75;;;;;;;;;;7421038;19;20189;-93
2023/06/23 13:20:21;;;;;;;0.93;0.93;;;;;;;;;;7412935;19;20181;-93
2023/06/23 13:22:47;;;;;;;0.80;0.80;;;;;;;;;;7399829;19;20158;-90
2023/06/23 13:25:14;;;;;;;0.68;0.68;;;;;;;;;;7396374;19;20157;-92
2023/06/23 13:27:41;;;;;;;0.88;0.88;;;;;;;;;;7401085;19;20147;-93
2023/06/23 13:30:08;;;;;;;0.60;0.60;;;;;;;;;;7400614;19;20157;-93
2023/06/23 13:32:35;;;;;;;0.50;0.50;;;;;;;;;;7395105;19;20137;-93
2023/06/23 13:35:01;;;;;;;0.70;0.70;;;;;;;;;;7401573;19;20164;-93
2023/06/23 13:37:28;;;;;;;1.58;0.68;;;;;;;;;;7404594;19;20136;-92
2023/06/23 13:39:55;;;;;;;1.08;1.05;;;;;;;;;;7415498;19;20137;-93
2023/06/23 13:42:22;;;;;;;1.20;1.10;;;;;;;;;;7404743;19;20133;-92
2023/06/23 13:44:48;;;;;;;0.55;0.55;;;;;;;;;;7398626;19;20149;-90
2023/06/23 13:47:15;;;;;;;0.50;0.50;;;;;;;;;;7403314;19;20137;-93
2023/06/23 13:49:42;;;;;;;0.70;0.70;;;;;;;;;;7397944;19;20517;-90
2023/06/23 13:52:08;;;;;;;0.60;0.60;;;;;;;;;;7405273;19;20398;-92
2023/06/23 13:54:35;;;;;;;0.73;0.73;;;;;;;;;;7392435;19;20167;-92
2023/06/23 13:57:02;;;;;;;0.52;0.52;;;;;;;;;;7397144;19;20141;-91
2023/06/23 13:59:29;;;;;;;1.23;1.15;;;;;;;;;;7404160;19;20137;-90
2023/06/23 14:01:55;;;;;;;0.65;0.65;;;;;;;;;;7400849;19;20144;-91
2023/06/23 14:04:22;;;;;;;1.02;1.02;;;;;;;;;;7400122;19;20558;-91
2023/06/23 14:06:49;;;;;;;0.60;0.60;;;;;;;;;;7409884;19;20153;-90
2023/06/23 14:09:17;;;;;;;0.60;0.60;;;;;;;;;;7409319;19;20147;-91
2023/06/23 14:11:44;;;;;;;1.15;1.05;;;;;;;;;;7406616;19;20204;-90
2023/06/23 14:14:10;;;;;;;1.13;1.13;;;;;;;;;;7392943;19;20592;-92
2023/06/23 14:16:55;;;;;;;0.95;0.85;;;;;;;;;;7397560;19;20145;-93
2023/06/23 14:19:22;;;;;;;0.82;0.82;;;;;;;;;;7399328;19;20137;-91
2023/06/23 14:21:50;;;;;;;0.55;0.55;;;;;;;;;;7409956;19;20660;-93
2023/06/23 14:24:37;;;;;;;0.85;0.85;;;;;;;;;;7408166;19;20167;-92
2023/06/23 14:27:04;;;;;;;1.33;1.23;;;;;;;;;;7404743;19;20511;-91
2023/06/23 14:29:30;;;;;;;0.93;0.93;;;;;;;;;;7405865;19;20180;-92
2023/06/23 14:31:59;;;;;;;0.93;0.75;;;;;;;;;;7402155;19;20413;-88
2023/06/23 14:35:28;;;;;;;0.80;0.73;;;;;;;;;;7401481;19;20168;-91
2023/06/23 14:46:03;;;;;;;0.70;0.70;;;;;;;;;;7400929;19;20798;-91
2023/06/23 14:48:29;;;;;;;1.05;1.05;;;;;;;;;;7401411;19;20200;-90
2023/06/23 14:50:56;;;;;;;0.63;0.63;;;;;;;;;;7399282;19;20137;-91
2023/06/23 14:53:26;;;;;;;0.73;0.73;;;;;;;;;;7398018;19;20790;-90
2023/06/23 14:55:53;;;;;;;0.70;0.70;;;;;;;;;;7397490;19;20143;-90
2023/06/23 14:58:20;;;;;;;0.60;0.60;;;;;;;;;;7398463;19;20145;-90
2023/06/23 15:00:46;;;;;;;1.05;0.85;;;;;;;;;;7392911;19;20136;-92
2023/06/23 15:03:13;;;;;;;0.82;0.68;;;;;;;;;;7396920;19;20248;-90
2023/06/23 15:05:40;;;;;;;0.50;0.50;;;;;;;;;;7398889;19;20125;-91
2023/06/23 15:08:06;;;;;;;0.60;0.60;;;;;;;;;;7399838;19;20163;-90
2023/06/23 15:10:34;;;;;;;1.33;0.88;;;;;;;;;;7399189;19;20653;-91
2023/06/23 15:13:01;;;;;;;0.50;0.50;;;;;;;;;;7397736;19;20227;-90
2023/06/23 15:15:27;;;;;;;0.70;0.70;;;;;;;;;;7401859;19;20610;-90
2023/06/23 15:17:57;;;;;;;0.70;0.70;;;;;;;;;;7400819;19;20540;-92
2023/06/23 15:20:24;;;;;;;0.50;0.50;;;;;;;;;;7406602;19;20161;-90
2023/06/23 15:22:51;;;;;;;0.47;0.47;;;;;;;;;;7399621;19;20154;-91
2023/06/23 15:25:18;;;;;;;1.42;1.33;;;;;;;;;;7402147;19;20456;-92
2023/06/23 15:27:44;;;;;;;0.88;0.88;;;;;;;;;;7398446;19;20162;-92
2023/06/23 15:30:12;;;;;;;1.33;1.23;;;;;;;;;;7400509;19;20124;-91
2023/06/23 15:32:39;;;;;;;0.57;0.57;;;;;;;;;;7397170;19;20139;-91
2023/06/23 15:35:06;;;;;;;0.80;0.80;;;;;;;;;;7396997;19;20176;-90
2023/06/23 15:37:34;;;;;;;1.60;1.00;;;;;;;;;;7394170;19;20220;-90
2023/06/23 15:40:01;;;;;;;0.70;0.70;;;;;;;;;;7397441;19;20143;-90
2023/06/23 15:42:28;;;;;;;0.93;0.93;;;;;;;;;;7398779;19;20141;-89
2023/06/23 15:44:56;;;;;;;1.13;1.13;;;;;;;;;;7395139;19;20617;-93
2023/06/23 15:47:23;;;;;;;0.70;0.70;;;;;;;;;;7396597;19;20558;-92
2023/06/23 15:49:50;;;;;;;0.80;0.80;;;;;;;;;;7398801;19;20270;-90
2023/06/23 15:52:17;;;;;;;0.70;0.70;;;;;;;;;;7396557;19;20153;-92
2023/06/23 15:54:44;;;;;;;0.47;0.47;;;;;;;;;;7394919;19;20748;-94
2023/06/23 15:57:11;;;;;;;0.57;0.57;;;;;;;;;;7399039;19;20554;-91
2023/06/23 15:59:38;;;;;;;0.88;0.88;;;;;;;;;;7398544;19;20147;-91
2023/06/23 16:02:04;;;;;;;0.68;0.68;;;;;;;;;;7398317;19;20193;-92
2023/06/23 16:04:31;;;;;;;0.50;0.50;;;;;;;;;;7399330;19;20160;-92
2023/06/23 16:06:58;;;;;;;0.63;0.63;;;;;;;;;;7399851;19;20149;-91
2023/06/23 16:09:25;;;;;;;0.88;0.88;;;;;;;;;;7395699;19;20151;-91
2023/06/23 16:11:52;;;;;;;0.63;0.63;;;;;;;;;;7397806;19;20149;-90
2023/06/23 16:14:19;;;;;;;0.63;0.63;;;;;;;;;;7398855;19;20164;-90
2023/06/23 16:16:48;;;;;;;0.65;0.65;;;;;;;;;;7400260;19;20156;-90
2023/06/23 16:19:15;;;;;;;0.95;0.95;;;;;;;;;;7397859;19;20144;-91
2023/06/23 16:21:47;;;;;;;0.80;0.80;;;;;;;;;;7399742;19;20137;-90
2023/06/23 16:24:14;;;;;;;0.57;0.57;;;;;;;;;;7399173;19;20184;-91
2023/06/23 16:26:41;;;;;;;0.70;0.70;;;;;;;;;;7397034;19;20152;-91
2023/06/23 16:29:08;;;;;;;0.90;0.90;;;;;;;;;;7400177;19;20148;-91
2023/06/23 16:31:35;;;;;;;0.98;0.88;;;;;;;;;;7398989;19;20479;-91
2023/06/23 16:34:02;;;;;;;0.98;0.93;;;;;;;;;;7395919;19;20172;-90
2023/06/23 16:36:29;;;;;;;0.88;0.88;;;;;;;;;;7398621;19;20136;-91
2023/06/23 16:38:55;;;;;;;0.95;0.60;;;;;;;;;;7398202;19;20156;-91
2023/06/23 16:41:22;;;;;;;0.47;0.47;;;;;;;;;;7398215;19;20228;-92
2023/06/23 19:15:08;;;;;;;0.63;0.63;;;;;;;;;;7399388;19;20232;-92
2023/06/23 21:17:03;;;;;;;0.70;0.70;;;;;;;;;;7406206;19;20169;-91
2023/06/23 21:19:30;;;;;;;2.13;0.95;;;;;;;;;;7401878;19;20137;-91
2023/06/23 21:21:57;;;;;;;0.57;0.45;;;;;;;;;;7403218;19;20158;-90
2023/06/23 21:24:24;;;;;;;0.80;0.80;;;;;;;;;;7400199;19;20721;-91
2023/06/23 21:26:53;;;;;;;1.45;1.35;;;;;;;;;;7398240;19;20150;-90
2023/06/23 21:29:20;;;;;;;1.35;1.25;;;;;;;;;;7399920;19;20141;-90
2023/06/23 21:31:47;;;;;;;0.98;0.98;;;;;;;;;;7398467;19;20143;-91
2023/06/23 21:34:13;;;;;;;1.90;1.30;;;;;;;;;;7399169;19;20244;-92
2023/06/23 21:36:41;;;;;;;1.02;1.02;;;;;;;;;;7406058;19;20144;-91
2023/06/23 21:39:08;;;;;;;0.90;0.90;;;;;;;;;;7403985;19;20145;-90
2023/06/23 21:41:34;;;;;;;1.08;1.02;;;;;;;;;;7402447;19;20133;-90
2023/06/23 21:44:01;;;;;;;0.98;0.93;;;;;;;;;;7402156;19;20617;-90
2023/06/23 21:46:27;;;;;;;1.15;1.15;;;;;;;;;;7398478;19;20149;-90
2023/06/23 21:48:57;;;;;;;2.38;1.40;;;;;;;;;;7396594;19;20137;-92
2023/06/23 21:51:24;;;;;;;1.10;1.00;;;;;;;;;;7403802;19;20120;-91
2023/06/23 21:53:52;;;;;;;0.88;0.88;;;;;;;;;;7400149;19;20240;-91
2023/06/23 21:56:18;;;;;;;1.77;1.23;;;;;;;;;;7399456;19;20212;-91
2023/06/23 21:58:45;;;;;;;1.20;1.20;;;;;;;;;;7400626;19;20136;-93
2023/06/23 22:01:12;;;;;;;1.77;0.98;;;;;;;;;;7393760;19;20145;-93
2023/06/23 22:03:38;;;;;;;2.78;1.85;;;;;;;;;;7394599;19;20200;-94
2023/06/23 22:06:05;;;;;;;1.00;1.00;;;;;;;;;;7396977;19;20160;-93
2023/06/23 22:08:32;;;;;;;1.30;1.27;;;;;;;;;;7393897;19;20189;-92
2023/06/23 22:10:59;;;;;;;0.70;0.70;;;;;;;;;;7393588;19;20673;-93
2023/06/23 22:13:28;;;;;;;1.13;1.00;;;;;;;;;;7389017;19;20633;-93
2023/06/23 22:15:57;;;;;;;1.85;0.95;;;;;;;;;;7393055;19;20144;-93
2023/06/23 22:18:23;;;;;;;2.60;1.05;;;;;;;;;;7392571;19;20140;-93
2023/06/23 22:21:10;;;;;;;1.30;1.20;;;;;;;;;;7399008;19;20610;-93
2023/06/23 22:23:37;;;;;;;1.35;1.20;;;;;;;;;;7402437;19;20148;-93
2023/06/23 22:26:18;;;;;;;;;;;;;;;;;;;;;
2023/06/23 22:29:07;;;;;;;1.30;1.27;;;;;;;;;;7405534;19;20628;-92
2023/06/23 22:31:52;;;;;;;1.15;1.15;;;;;;;;;;7393926;19;20262;-93
2023/06/23 22:34:32;;;;;;;2.05;1.88;;;;;;;;;;7392623;19;20169;-93
2023/06/23 22:37:00;;;;;;;1.27;1.20;;;;;;;;;;7393540;19;20140;-92
2023/06/23 22:39:40;;;;;;;2.03;0.88;;;;;;;;;;7391718;19;20136;-92
2023/06/23 22:42:08;;;;;;;0.77;0.77;;;;;;;;;;7396583;19;20151;-92
2023/06/23 22:44:39;;;;;;;0.70;0.70;;;;;;;;;;7396959;19;20152;-91
2023/06/23 22:47:07;;;;;;;1.17;1.13;;;;;;;;;;7397490;19;20145;-92
2023/06/23 22:49:33;;;;;;;0.70;0.70;;;;;;;;;;7394327;19;20144;-92
2023/06/23 22:52:04;;;;;;;1.40;0.98;;;;;;;;;;7397024;19;20598;-91
2023/06/23 22:54:35;;;;;;;0.50;0.50;;;;;;;;;;7398351;19;20193;-91
2023/06/23 22:57:02;;;;;;;0.68;0.65;;;;;;;;;;7400255;19;20173;-92
2023/06/23 22:59:28;;;;;;;1.40;1.30;;;;;;;;;;7398076;19;20137;-92
2023/06/23 23:01:55;;;;;;;0.90;0.75;;;;;;;;;;7397348;19;20209;-92
2023/06/23 23:04:23;;;;;;;0.73;0.60;;;;;;;;;;7394939;19;20176;-92
2023/06/23 23:06:50;;;;;;;1.15;1.10;;;;;;;;;;7396572;19;20629;-93
2023/06/23 23:09:17;;;;;;;1.10;0.93;;;;;;;;;;7396720;19;20145;-92
2023/06/23 23:11:43;;;;;;;4.63;1.17;;;;;;;;;;7395886;19;20141;-91
2023/06/23 23:14:11;;;;;;;1.13;1.13;;;;;;;;;;7396766;19;20220;-92
2023/06/23 23:16:38;;;;;;;1.58;1.42;;;;;;;;;;7396398;19;20649;-93
2023/06/23 23:19:04;;;;;;;0.75;0.73;;;;;;;;;;7394576;19;20137;-92
2023/06/23 23:21:31;;;;;;;1.35;1.25;;;;;;;;;;7397429;19;20165;-92